sensor_id;sensor_type;location;lat;lon;timestamp;P1;durP1;ratioP1;P2;durP2;ratioP2
22565;SDS011;11449;51.330;19.378;2022-12-18T00:01:13;54.77;;;22.70;;
22565;SDS011;11449;51.330;19.378;2022-12-18T00:06:11;57.77;;;24.10;;
22565;SDS011;11449;51.330;19.378;2022-12-18T00:11:16;58.40;;;22.17;;
22565;SDS011;11449;51.330;19.378;2022-12-18T00:16:18;57.67;;;22.23;;
22565;SDS011;11449;51.330;19.378;2022-12-18T00:21:23;63.37;;;24.13;;
22565;SDS011;11449;51.330;19.378;2022-12-18T00:26:26;59.70;;;23.27;;
22565;SDS011;11449;51.330;19.378;2022-12-18T00:31:29;64.33;;;23.90;;
22565;SDS011;11449;51.330;19.378;2022-12-18T00:36:31;59.77;;;23.47;;
22565;SDS011;11449;51.330;19.378;2022-12-18T00:41:32;59.93;;;23.57;;
22565;SDS011;11449;51.330;19.378;2022-12-18T00:46:52;62.60;;;24.40;;
22565;SDS011;11449;51.330;19.378;2022-12-18T00:51:53;54.53;;;23.70;;
22565;SDS011;11449;51.330;19.378;2022-12-18T00:56:55;57.73;;;22.33;;
22565;SDS011;11449;51.330;19.378;2022-12-18T01:01:56;59.50;;;23.03;;
22565;SDS011;11449;51.330;19.378;2022-12-18T01:06:57;56.57;;;23.77;;
22565;SDS011;11449;51.330;19.378;2022-12-18T01:11:57;51.10;;;21.07;;
22565;SDS011;11449;51.330;19.378;2022-12-18T01:16:58;54.33;;;23.03;;
22565;SDS011;11449;51.330;19.378;2022-12-18T01:22:00;54.73;;;22.63;;
22565;SDS011;11449;51.330;19.378;2022-12-18T01:27:01;55.20;;;23.03;;
22565;SDS011;11449;51.330;19.378;2022-12-18T01:32:02;55.47;;;22.10;;
22565;SDS011;11449;51.330;19.378;2022-12-18T01:37:04;51.93;;;21.27;;
22565;SDS011;11449;51.330;19.378;2022-12-18T01:42:09;47.63;;;19.67;;
22565;SDS011;11449;51.330;19.378;2022-12-18T01:47:14;48.33;;;19.60;;
22565;SDS011;11449;51.330;19.378;2022-12-18T01:52:14;50.23;;;19.43;;
22565;SDS011;11449;51.330;19.378;2022-12-18T01:57:15;48.70;;;19.37;;
22565;SDS011;11449;51.330;19.378;2022-12-18T02:02:17;46.77;;;18.97;;
22565;SDS011;11449;51.330;19.378;2022-12-18T02:17:43;53.10;;;19.50;;
22565;SDS011;11449;51.330;19.378;2022-12-18T02:27:46;46.93;;;20.10;;
22565;SDS011;11449;51.330;19.378;2022-12-18T02:32:50;41.47;;;18.57;;
22565;SDS011;11449;51.330;19.378;2022-12-18T02:37:52;46.13;;;19.07;;
22565;SDS011;11449;51.330;19.378;2022-12-18T02:42:54;45.20;;;18.47;;
22565;SDS011;11449;51.330;19.378;2022-12-18T02:47:55;47.37;;;19.40;;
22565;SDS011;11449;51.330;19.378;2022-12-18T02:58:20;47.97;;;18.67;;
22565;SDS011;11449;51.330;19.378;2022-12-18T03:03:29;48.70;;;19.00;;
22565;SDS011;11449;51.330;19.378;2022-12-18T03:08:34;46.87;;;18.90;;
22565;SDS011;11449;51.330;19.378;2022-12-18T03:13:41;49.10;;;19.63;;
22565;SDS011;11449;51.330;19.378;2022-12-18T03:18:43;57.17;;;21.00;;
22565;SDS011;11449;51.330;19.378;2022-12-18T03:23:45;49.13;;;19.03;;
22565;SDS011;11449;51.330;19.378;2022-12-18T03:28:55;49.20;;;19.33;;
22565;SDS011;11449;51.330;19.378;2022-12-18T03:34:01;54.87;;;20.93;;
22565;SDS011;11449;51.330;19.378;2022-12-18T03:39:04;45.03;;;18.20;;
22565;SDS011;11449;51.330;19.378;2022-12-18T03:44:14;58.03;;;20.90;;
22565;SDS011;11449;51.330;19.378;2022-12-18T03:54:27;53.10;;;21.40;;
22565;SDS011;11449;51.330;19.378;2022-12-18T03:59:31;41.23;;;18.80;;
22565;SDS011;11449;51.330;19.378;2022-12-18T04:04:33;47.63;;;18.67;;
22565;SDS011;11449;51.330;19.378;2022-12-18T04:09:35;46.97;;;19.50;;
22565;SDS011;11449;51.330;19.378;2022-12-18T04:14:37;52.50;;;19.87;;
22565;SDS011;11449;51.330;19.378;2022-12-18T04:19:39;49.77;;;19.53;;
22565;SDS011;11449;51.330;19.378;2022-12-18T04:24:41;49.63;;;19.87;;
22565;SDS011;11449;51.330;19.378;2022-12-18T04:29:44;49.33;;;19.53;;
22565;SDS011;11449;51.330;19.378;2022-12-18T04:34:45;52.27;;;20.00;;
22565;SDS011;11449;51.330;19.378;2022-12-18T04:39:46;47.77;;;17.83;;
22565;SDS011;11449;51.330;19.378;2022-12-18T04:44:49;51.07;;;21.07;;
22565;SDS011;11449;51.330;19.378;2022-12-18T04:49:50;54.40;;;20.10;;
22565;SDS011;11449;51.330;19.378;2022-12-18T04:54:51;46.40;;;19.37;;
22565;SDS011;11449;51.330;19.378;2022-12-18T04:59:52;46.97;;;19.43;;
22565;SDS011;11449;51.330;19.378;2022-12-18T05:04:54;58.40;;;20.70;;
22565;SDS011;11449;51.330;19.378;2022-12-18T05:09:55;55.07;;;18.70;;
22565;SDS011;11449;51.330;19.378;2022-12-18T05:14:56;61.70;;;20.70;;
22565;SDS011;11449;51.330;19.378;2022-12-18T05:19:56;52.17;;;19.03;;
22565;SDS011;11449;51.330;19.378;2022-12-18T05:24:57;59.00;;;19.43;;
22565;SDS011;11449;51.330;19.378;2022-12-18T05:29:58;47.50;;;19.73;;
22565;SDS011;11449;51.330;19.378;2022-12-18T05:34:59;53.77;;;20.23;;
22565;SDS011;11449;51.330;19.378;2022-12-18T05:40:00;50.07;;;19.27;;
22565;SDS011;11449;51.330;19.378;2022-12-18T05:45:01;52.97;;;19.77;;
22565;SDS011;11449;51.330;19.378;2022-12-18T05:50:02;49.50;;;19.90;;
22565;SDS011;11449;51.330;19.378;2022-12-18T05:55:03;59.87;;;24.13;;
22565;SDS011;11449;51.330;19.378;2022-12-18T06:00:05;53.37;;;20.80;;
22565;SDS011;11449;51.330;19.378;2022-12-18T06:05:08;57.30;;;22.07;;
22565;SDS011;11449;51.330;19.378;2022-12-18T06:10:10;51.67;;;20.60;;
22565;SDS011;11449;51.330;19.378;2022-12-18T06:15:11;52.57;;;20.60;;
22565;SDS011;11449;51.330;19.378;2022-12-18T06:20:12;75.60;;;32.93;;
22565;SDS011;11449;51.330;19.378;2022-12-18T06:25:13;49.80;;;20.83;;
22565;SDS011;11449;51.330;19.378;2022-12-18T06:30:14;56.47;;;21.27;;
22565;SDS011;11449;51.330;19.378;2022-12-18T06:35:15;49.83;;;19.03;;
22565;SDS011;11449;51.330;19.378;2022-12-18T06:40:16;47.57;;;18.97;;
22565;SDS011;11449;51.330;19.378;2022-12-18T06:45:17;46.90;;;18.33;;
22565;SDS011;11449;51.330;19.378;2022-12-18T06:50:18;47.23;;;19.03;;
22565;SDS011;11449;51.330;19.378;2022-12-18T06:55:19;50.20;;;18.63;;
22565;SDS011;11449;51.330;19.378;2022-12-18T07:00:20;45.00;;;17.90;;
22565;SDS011;11449;51.330;19.378;2022-12-18T07:05:21;48.07;;;19.30;;
22565;SDS011;11449;51.330;19.378;2022-12-18T07:10:22;41.37;;;18.07;;
22565;SDS011;11449;51.330;19.378;2022-12-18T07:15:23;43.70;;;18.87;;
22565;SDS011;11449;51.330;19.378;2022-12-18T07:20:23;53.60;;;20.97;;
22565;SDS011;11449;51.330;19.378;2022-12-18T07:25:24;45.00;;;17.70;;
22565;SDS011;11449;51.330;19.378;2022-12-18T07:30:25;46.70;;;18.00;;
22565;SDS011;11449;51.330;19.378;2022-12-18T07:35:26;50.33;;;19.57;;
22565;SDS011;11449;51.330;19.378;2022-12-18T07:40:27;56.00;;;20.63;;
22565;SDS011;11449;51.330;19.378;2022-12-18T07:45:28;50.87;;;20.20;;
22565;SDS011;11449;51.330;19.378;2022-12-18T07:50:29;50.60;;;20.83;;
22565;SDS011;11449;51.330;19.378;2022-12-18T07:55:30;51.93;;;20.60;;
22565;SDS011;11449;51.330;19.378;2022-12-18T08:00:31;51.40;;;19.40;;
22565;SDS011;11449;51.330;19.378;2022-12-18T08:05:32;53.53;;;22.60;;
22565;SDS011;11449;51.330;19.378;2022-12-18T08:10:33;61.83;;;22.83;;
22565;SDS011;11449;51.330;19.378;2022-12-18T08:15:34;80.93;;;31.10;;
22565;SDS011;11449;51.330;19.378;2022-12-18T08:20:35;53.63;;;18.90;;
22565;SDS011;11449;51.330;19.378;2022-12-18T08:25:36;57.23;;;20.27;;
22565;SDS011;11449;51.330;19.378;2022-12-18T08:30:36;54.83;;;21.33;;
22565;SDS011;11449;51.330;19.378;2022-12-18T08:35:37;52.10;;;19.67;;
22565;SDS011;11449;51.330;19.378;2022-12-18T08:40:38;49.37;;;17.77;;
22565;SDS011;11449;51.330;19.378;2022-12-18T08:45:39;51.33;;;18.57;;
22565;SDS011;11449;51.330;19.378;2022-12-18T08:50:40;55.13;;;21.43;;
22565;SDS011;11449;51.330;19.378;2022-12-18T08:55:41;51.67;;;17.47;;
22565;SDS011;11449;51.330;19.378;2022-12-18T09:00:42;48.27;;;17.77;;
22565;SDS011;11449;51.330;19.378;2022-12-18T09:05:43;36.70;;;13.90;;
22565;SDS011;11449;51.330;19.378;2022-12-18T09:10:46;43.13;;;16.07;;
22565;SDS011;11449;51.330;19.378;2022-12-18T09:15:48;43.30;;;15.27;;
22565;SDS011;11449;51.330;19.378;2022-12-18T09:20:50;46.70;;;16.93;;
22565;SDS011;11449;51.330;19.378;2022-12-18T09:25:57;40.97;;;15.77;;
22565;SDS011;11449;51.330;19.378;2022-12-18T09:30:55;62.33;;;25.57;;
22565;SDS011;11449;51.330;19.378;2022-12-18T09:35:56;56.90;;;25.00;;
22565;SDS011;11449;51.330;19.378;2022-12-18T09:40:59;45.67;;;18.20;;
22565;SDS011;11449;51.330;19.378;2022-12-18T09:46:06;43.97;;;16.57;;
22565;SDS011;11449;51.330;19.378;2022-12-18T09:51:10;43.03;;;15.43;;
22565;SDS011;11449;51.330;19.378;2022-12-18T09:56:10;36.10;;;14.43;;
22565;SDS011;11449;51.330;19.378;2022-12-18T10:01:12;45.07;;;16.73;;
22565;SDS011;11449;51.330;19.378;2022-12-18T10:06:36;40.50;;;14.80;;
22565;SDS011;11449;51.330;19.378;2022-12-18T10:11:39;38.13;;;14.83;;
22565;SDS011;11449;51.330;19.378;2022-12-18T10:17:02;45.30;;;16.63;;
22565;SDS011;11449;51.330;19.378;2022-12-18T10:27:12;48.30;;;18.77;;
22565;SDS011;11449;51.330;19.378;2022-12-18T10:32:19;45.73;;;18.33;;
22565;SDS011;11449;51.330;19.378;2022-12-18T10:37:18;54.00;;;21.53;;
22565;SDS011;11449;51.330;19.378;2022-12-18T10:42:19;62.27;;;23.77;;
22565;SDS011;11449;51.330;19.378;2022-12-18T10:47:20;48.23;;;18.83;;
22565;SDS011;11449;51.330;19.378;2022-12-18T10:52:21;47.77;;;20.00;;
22565;SDS011;11449;51.330;19.378;2022-12-18T11:02:36;49.47;;;17.30;;
22565;SDS011;11449;51.330;19.378;2022-12-18T11:07:47;39.87;;;14.83;;
22565;SDS011;11449;51.330;19.378;2022-12-18T11:12:49;45.53;;;15.73;;
22565;SDS011;11449;51.330;19.378;2022-12-18T11:17:50;41.40;;;15.93;;
22565;SDS011;11449;51.330;19.378;2022-12-18T11:22:59;44.20;;;17.50;;
22565;SDS011;11449;51.330;19.378;2022-12-18T11:28:03;62.33;;;23.20;;
22565;SDS011;11449;51.330;19.378;2022-12-18T11:38:23;42.93;;;16.47;;
22565;SDS011;11449;51.330;19.378;2022-12-18T11:43:29;44.37;;;16.97;;
22565;SDS011;11449;51.330;19.378;2022-12-18T11:48:32;49.73;;;20.30;;
22565;SDS011;11449;51.330;19.378;2022-12-18T11:53:33;50.17;;;17.67;;
22565;SDS011;11449;51.330;19.378;2022-12-18T11:58:42;50.87;;;18.83;;
22565;SDS011;11449;51.330;19.378;2022-12-18T12:09:09;55.73;;;19.47;;
22565;SDS011;11449;51.330;19.378;2022-12-18T12:19:35;49.57;;;20.43;;
22565;SDS011;11449;51.330;19.378;2022-12-18T12:34:54;48.53;;;21.33;;
22565;SDS011;11449;51.330;19.378;2022-12-18T12:39:52;53.87;;;21.07;;
22565;SDS011;11449;51.330;19.378;2022-12-18T12:44:55;50.33;;;20.30;;
22565;SDS011;11449;51.330;19.378;2022-12-18T12:50:02;45.33;;;16.53;;
22565;SDS011;11449;51.330;19.378;2022-12-18T12:55:00;48.60;;;18.03;;
22565;SDS011;11449;51.330;19.378;2022-12-18T13:00:05;58.33;;;22.43;;
22565;SDS011;11449;51.330;19.378;2022-12-18T13:20:32;69.47;;;27.33;;
22565;SDS011;11449;51.330;19.378;2022-12-18T13:25:35;58.87;;;22.47;;
22565;SDS011;11449;51.330;19.378;2022-12-18T13:35:52;61.90;;;23.57;;
22565;SDS011;11449;51.330;19.378;2022-12-18T13:40:54;56.70;;;26.57;;
22565;SDS011;11449;51.330;19.378;2022-12-18T13:46:06;41.43;;;18.97;;
22565;SDS011;11449;51.330;19.378;2022-12-18T13:51:08;48.20;;;18.67;;
22565;SDS011;11449;51.330;19.378;2022-12-18T13:56:15;54.53;;;23.17;;
22565;SDS011;11449;51.330;19.378;2022-12-18T14:01:21;57.37;;;24.00;;
22565;SDS011;11449;51.330;19.378;2022-12-18T14:06:15;52.03;;;19.53;;
22565;SDS011;11449;51.330;19.378;2022-12-18T14:11:21;59.10;;;27.33;;
22565;SDS011;11449;51.330;19.378;2022-12-18T14:16:22;62.73;;;29.77;;
22565;SDS011;11449;51.330;19.378;2022-12-18T14:21:28;50.47;;;19.37;;
22565;SDS011;11449;51.330;19.378;2022-12-18T14:26:28;46.13;;;18.37;;
22565;SDS011;11449;51.330;19.378;2022-12-18T14:31:30;53.77;;;18.87;;
22565;SDS011;11449;51.330;19.378;2022-12-18T14:36:31;52.63;;;16.87;;
22565;SDS011;11449;51.330;19.378;2022-12-18T14:41:32;48.03;;;19.43;;
22565;SDS011;11449;51.330;19.378;2022-12-18T14:46:37;50.47;;;19.93;;
22565;SDS011;11449;51.330;19.378;2022-12-18T14:51:39;60.73;;;21.03;;
22565;SDS011;11449;51.330;19.378;2022-12-18T14:56:44;49.67;;;18.67;;
22565;SDS011;11449;51.330;19.378;2022-12-18T15:01:47;57.93;;;19.77;;
22565;SDS011;11449;51.330;19.378;2022-12-18T15:06:50;47.03;;;18.27;;
22565;SDS011;11449;51.330;19.378;2022-12-18T15:11:56;50.00;;;20.23;;
22565;SDS011;11449;51.330;19.378;2022-12-18T15:16:57;59.27;;;22.23;;
22565;SDS011;11449;51.330;19.378;2022-12-18T15:21:59;51.00;;;18.47;;
22565;SDS011;11449;51.330;19.378;2022-12-18T15:27:00;58.77;;;21.43;;
22565;SDS011;11449;51.330;19.378;2022-12-18T15:32:02;48.43;;;17.77;;
22565;SDS011;11449;51.330;19.378;2022-12-18T15:37:03;50.07;;;18.70;;
22565;SDS011;11449;51.330;19.378;2022-12-18T15:42:04;52.87;;;20.47;;
22565;SDS011;11449;51.330;19.378;2022-12-18T15:47:23;55.03;;;21.13;;
22565;SDS011;11449;51.330;19.378;2022-12-18T15:52:24;57.60;;;22.20;;
22565;SDS011;11449;51.330;19.378;2022-12-18T15:57:26;56.80;;;21.10;;
22565;SDS011;11449;51.330;19.378;2022-12-18T16:02:27;62.97;;;23.77;;
22565;SDS011;11449;51.330;19.378;2022-12-18T16:07:29;60.93;;;24.07;;
22565;SDS011;11449;51.330;19.378;2022-12-18T16:12:31;76.13;;;29.37;;
22565;SDS011;11449;51.330;19.378;2022-12-18T16:17:32;80.87;;;30.73;;
22565;SDS011;11449;51.330;19.378;2022-12-18T16:22:33;81.33;;;28.73;;
22565;SDS011;11449;51.330;19.378;2022-12-18T16:27:33;77.27;;;28.03;;
22565;SDS011;11449;51.330;19.378;2022-12-18T16:32:34;90.27;;;32.77;;
22565;SDS011;11449;51.330;19.378;2022-12-18T16:37:35;74.27;;;26.77;;
22565;SDS011;11449;51.330;19.378;2022-12-18T16:42:36;69.73;;;26.40;;
22565;SDS011;11449;51.330;19.378;2022-12-18T16:47:38;72.00;;;29.30;;
22565;SDS011;11449;51.330;19.378;2022-12-18T16:52:39;69.60;;;25.87;;
22565;SDS011;11449;51.330;19.378;2022-12-18T16:57:40;76.93;;;29.43;;
22565;SDS011;11449;51.330;19.378;2022-12-18T17:02:41;65.73;;;25.53;;
22565;SDS011;11449;51.330;19.378;2022-12-18T17:07:42;71.87;;;26.97;;
22565;SDS011;11449;51.330;19.378;2022-12-18T17:12:43;70.50;;;28.97;;
22565;SDS011;11449;51.330;19.378;2022-12-18T17:17:44;70.17;;;27.57;;
22565;SDS011;11449;51.330;19.378;2022-12-18T17:22:45;55.20;;;22.87;;
22565;SDS011;11449;51.330;19.378;2022-12-18T17:27:46;70.27;;;26.50;;
22565;SDS011;11449;51.330;19.378;2022-12-18T17:32:48;64.03;;;24.47;;
22565;SDS011;11449;51.330;19.378;2022-12-18T17:37:49;62.63;;;22.73;;
22565;SDS011;11449;51.330;19.378;2022-12-18T17:42:51;69.77;;;27.77;;
22565;SDS011;11449;51.330;19.378;2022-12-18T17:47:52;67.33;;;26.17;;
22565;SDS011;11449;51.330;19.378;2022-12-18T17:52:56;59.93;;;23.73;;
22565;SDS011;11449;51.330;19.378;2022-12-18T17:57:57;54.70;;;21.20;;
22565;SDS011;11449;51.330;19.378;2022-12-18T18:02:58;60.33;;;19.60;;
22565;SDS011;11449;51.330;19.378;2022-12-18T18:08:00;66.73;;;23.93;;
22565;SDS011;11449;51.330;19.378;2022-12-18T18:13:00;65.27;;;21.97;;
22565;SDS011;11449;51.330;19.378;2022-12-18T18:18:20;65.27;;;23.43;;
22565;SDS011;11449;51.330;19.378;2022-12-18T18:23:20;59.53;;;21.47;;
22565;SDS011;11449;51.330;19.378;2022-12-18T18:28:22;58.17;;;20.93;;
22565;SDS011;11449;51.330;19.378;2022-12-18T18:33:26;68.67;;;23.07;;
22565;SDS011;11449;51.330;19.378;2022-12-18T18:38:27;56.63;;;20.30;;
22565;SDS011;11449;51.330;19.378;2022-12-18T18:43:28;49.77;;;17.63;;
22565;SDS011;11449;51.330;19.378;2022-12-18T18:48:30;51.47;;;16.87;;
22565;SDS011;11449;51.330;19.378;2022-12-18T18:53:39;41.60;;;16.05;;
22565;SDS011;11449;51.330;19.378;2022-12-18T18:58:41;54.13;;;20.07;;
22565;SDS011;11449;51.330;19.378;2022-12-18T19:03:42;54.07;;;19.53;;
22565;SDS011;11449;51.330;19.378;2022-12-18T19:08:43;65.67;;;26.23;;
22565;SDS011;11449;51.330;19.378;2022-12-18T19:13:45;47.50;;;18.13;;
22565;SDS011;11449;51.330;19.378;2022-12-18T19:18:46;51.13;;;19.53;;
22565;SDS011;11449;51.330;19.378;2022-12-18T19:23:47;48.60;;;17.17;;
22565;SDS011;11449;51.330;19.378;2022-12-18T19:28:48;45.80;;;18.00;;
22565;SDS011;11449;51.330;19.378;2022-12-18T19:33:49;64.53;;;22.23;;
22565;SDS011;11449;51.330;19.378;2022-12-18T19:38:51;54.03;;;21.57;;
22565;SDS011;11449;51.330;19.378;2022-12-18T19:43:52;54.40;;;18.80;;
22565;SDS011;11449;51.330;19.378;2022-12-18T19:48:54;52.77;;;19.27;;
22565;SDS011;11449;51.330;19.378;2022-12-18T19:53:55;72.27;;;26.60;;
22565;SDS011;11449;51.330;19.378;2022-12-18T19:58:57;40.47;;;16.03;;
22565;SDS011;11449;51.330;19.378;2022-12-18T20:03:58;57.43;;;20.77;;
22565;SDS011;11449;51.330;19.378;2022-12-18T20:09:00;55.07;;;19.53;;
22565;SDS011;11449;51.330;19.378;2022-12-18T20:14:02;61.20;;;21.23;;
22565;SDS011;11449;51.330;19.378;2022-12-18T20:19:03;48.03;;;19.07;;
22565;SDS011;11449;51.330;19.378;2022-12-18T20:24:04;69.93;;;28.67;;
22565;SDS011;11449;51.330;19.378;2022-12-18T20:29:06;54.40;;;20.77;;
22565;SDS011;11449;51.330;19.378;2022-12-18T20:34:07;74.17;;;26.67;;
22565;SDS011;11449;51.330;19.378;2022-12-18T20:39:08;63.87;;;22.10;;
22565;SDS011;11449;51.330;19.378;2022-12-18T20:44:11;43.63;;;17.37;;
22565;SDS011;11449;51.330;19.378;2022-12-18T20:49:12;67.30;;;23.33;;
22565;SDS011;11449;51.330;19.378;2022-12-18T20:54:13;64.27;;;21.23;;
22565;SDS011;11449;51.330;19.378;2022-12-18T20:59:14;57.97;;;20.50;;
22565;SDS011;11449;51.330;19.378;2022-12-18T21:04:15;48.43;;;18.90;;
22565;SDS011;11449;51.330;19.378;2022-12-18T21:09:17;59.27;;;20.67;;
22565;SDS011;11449;51.330;19.378;2022-12-18T21:14:20;44.33;;;17.30;;
22565;SDS011;11449;51.330;19.378;2022-12-18T21:19:22;53.53;;;18.70;;
22565;SDS011;11449;51.330;19.378;2022-12-18T21:24:23;52.67;;;21.87;;
22565;SDS011;11449;51.330;19.378;2022-12-18T21:29:24;49.73;;;18.80;;
22565;SDS011;11449;51.330;19.378;2022-12-18T21:34:26;63.73;;;25.27;;
22565;SDS011;11449;51.330;19.378;2022-12-18T21:39:27;44.17;;;17.77;;
22565;SDS011;11449;51.330;19.378;2022-12-18T21:44:29;39.83;;;15.60;;
22565;SDS011;11449;51.330;19.378;2022-12-18T21:49:30;53.77;;;20.23;;
22565;SDS011;11449;51.330;19.378;2022-12-18T21:54:31;50.17;;;19.30;;
22565;SDS011;11449;51.330;19.378;2022-12-18T21:59:35;36.67;;;15.40;;
22565;SDS011;11449;51.330;19.378;2022-12-18T22:04:36;44.60;;;16.10;;
22565;SDS011;11449;51.330;19.378;2022-12-18T22:09:37;43.30;;;17.97;;
22565;SDS011;11449;51.330;19.378;2022-12-18T22:14:38;42.67;;;16.33;;
22565;SDS011;11449;51.330;19.378;2022-12-18T22:19:39;51.47;;;16.40;;
22565;SDS011;11449;51.330;19.378;2022-12-18T22:24:40;37.00;;;14.47;;
22565;SDS011;11449;51.330;19.378;2022-12-18T22:29:41;48.13;;;18.17;;
22565;SDS011;11449;51.330;19.378;2022-12-18T22:35:01;49.87;;;17.83;;
22565;SDS011;11449;51.330;19.378;2022-12-18T22:40:02;31.93;;;12.53;;
22565;SDS011;11449;51.330;19.378;2022-12-18T22:45:03;47.47;;;18.63;;
22565;SDS011;11449;51.330;19.378;2022-12-18T22:50:04;32.53;;;13.70;;
22565;SDS011;11449;51.330;19.378;2022-12-18T22:55:05;34.07;;;14.33;;
22565;SDS011;11449;51.330;19.378;2022-12-18T23:00:07;36.93;;;14.00;;
22565;SDS011;11449;51.330;19.378;2022-12-18T23:05:08;41.17;;;14.77;;
22565;SDS011;11449;51.330;19.378;2022-12-18T23:10:09;41.17;;;16.07;;
22565;SDS011;11449;51.330;19.378;2022-12-18T23:15:10;43.57;;;16.27;;
22565;SDS011;11449;51.330;19.378;2022-12-18T23:20:11;46.90;;;17.40;;
22565;SDS011;11449;51.330;19.378;2022-12-18T23:25:11;50.00;;;17.43;;
22565;SDS011;11449;51.330;19.378;2022-12-18T23:30:12;39.40;;;14.43;;
22565;SDS011;11449;51.330;19.378;2022-12-18T23:35:13;43.17;;;16.63;;
22565;SDS011;11449;51.330;19.378;2022-12-18T23:40:14;45.00;;;14.63;;
22565;SDS011;11449;51.330;19.378;2022-12-18T23:45:15;43.53;;;14.87;;
22565;SDS011;11449;51.330;19.378;2022-12-18T23:50:16;33.80;;;13.17;;
22565;SDS011;11449;51.330;19.378;2022-12-18T23:55:17;34.87;;;13.27;;
